sensor_id;sensor_type;location;lat;lon;timestamp;pressure;altitude;pressure_sealevel;temperature;humidity
72428;BME280;60419;48.880;18.036;2024-03-23T00:55:34;98575.44;;;10.37;61.31
72428;BME280;60419;48.880;18.036;2024-03-23T00:58:19;98572.53;;;10.16;62.07
72428;BME280;60419;48.880;18.036;2024-03-23T01:01:05;98491.28;;;8.98;65.10
72428;BME280;60419;48.880;18.036;2024-03-23T01:03:50;98553.59;;;9.99;63.47
72428;BME280;60419;48.880;18.036;2024-03-23T01:06:35;98549.34;;;10.15;63.13
72428;BME280;60419;48.880;18.036;2024-03-23T01:09:21;98537.03;;;10.58;61.96
72428;BME280;60419;48.880;18.036;2024-03-23T01:12:08;98533.81;;;10.30;62.65
72428;BME280;60419;48.880;18.036;2024-03-23T01:14:53;98534.81;;;10.69;61.31
72428;BME280;60419;48.880;18.036;2024-03-23T01:17:38;98534.03;;;10.68;61.40
72428;BME280;60419;48.880;18.036;2024-03-23T01:20:24;98538.78;;;10.97;60.58
72428;BME280;60419;48.880;18.036;2024-03-23T01:23:09;98527.53;;;10.87;60.43
72428;BME280;60419;48.880;18.036;2024-03-23T01:25:55;98531.47;;;10.46;62.00
72428;BME280;60419;48.880;18.036;2024-03-23T01:28:41;98514.47;;;10.54;61.95
72428;BME280;60419;48.880;18.036;2024-03-23T01:31:26;98471.72;;;10.04;62.82
72428;BME280;60419;48.880;18.036;2024-03-23T01:34:12;98513.28;;;9.45;66.10
72428;BME280;60419;48.880;18.036;2024-03-23T01:36:57;98514.53;;;9.88;64.82
72428;BME280;60419;48.880;18.036;2024-03-23T01:39:43;98493.59;;;9.85;64.93
72428;BME280;60419;48.880;18.036;2024-03-23T01:42:28;98498.59;;;9.29;66.54
72428;BME280;60419;48.880;18.036;2024-03-23T01:45:13;98501.97;;;9.75;65.01
72428;BME280;60419;48.880;18.036;2024-03-23T01:47:59;98496.50;;;10.06;64.10
72428;BME280;60419;48.880;18.036;2024-03-23T01:50:44;98499.03;;;10.20;63.82
72428;BME280;60419;48.880;18.036;2024-03-23T01:53:30;98481.44;;;10.48;62.53
72428;BME280;60419;48.880;18.036;2024-03-23T01:56:15;98489.66;;;10.78;61.83
72428;BME280;60419;48.880;18.036;2024-03-23T01:59:02;98491.44;;;10.74;61.02
72428;BME280;60419;48.880;18.036;2024-03-23T02:01:47;98486.50;;;10.76;60.85
72428;BME280;60419;48.880;18.036;2024-03-23T02:04:32;98485.06;;;10.70;61.05
72428;BME280;60419;48.880;18.036;2024-03-23T02:07:18;98410.31;;;8.72;65.40
72428;BME280;60419;48.880;18.036;2024-03-23T02:10:03;98481.34;;;9.30;65.50
72428;BME280;60419;48.880;18.036;2024-03-23T02:12:49;98468.56;;;9.53;64.83
72428;BME280;60419;48.880;18.036;2024-03-23T02:15:34;98480.63;;;10.30;63.11
72428;BME280;60419;48.880;18.036;2024-03-23T02:18:20;98445.53;;;10.39;62.47
72428;BME280;60419;48.880;18.036;2024-03-23T02:21:05;98479.97;;;10.77;61.93
72428;BME280;60419;48.880;18.036;2024-03-23T02:23:51;98466.66;;;10.54;62.57
72428;BME280;60419;48.880;18.036;2024-03-23T02:26:36;98470.63;;;10.48;62.57
72428;BME280;60419;48.880;18.036;2024-03-23T02:29:21;98470.16;;;10.64;61.92
72428;BME280;60419;48.880;18.036;2024-03-23T02:32:07;98463.47;;;10.87;61.53
72428;BME280;60419;48.880;18.036;2024-03-23T02:34:54;98453.91;;;10.72;61.51
72428;BME280;60419;48.880;18.036;2024-03-23T02:37:39;98459.94;;;10.78;61.95
72428;BME280;60419;48.880;18.036;2024-03-23T02:40:25;98460.91;;;10.82;61.44
72428;BME280;60419;48.880;18.036;2024-03-23T02:43:10;98447.53;;;11.03;60.53
72428;BME280;60419;48.880;18.036;2024-03-23T02:45:56;98457.38;;;10.99;60.99
72428;BME280;60419;48.880;18.036;2024-03-23T02:48:42;98449.22;;;11.16;60.59
72428;BME280;60419;48.880;18.036;2024-03-23T02:51:27;98456.28;;;10.91;61.19
72428;BME280;60419;48.880;18.036;2024-03-23T02:54:12;98450.88;;;11.00;61.53
72428;BME280;60419;48.880;18.036;2024-03-23T02:56:58;98385.69;;;10.37;61.61
72428;BME280;60419;48.880;18.036;2024-03-23T02:59:43;98448.00;;;10.96;61.28
72428;BME280;60419;48.880;18.036;2024-03-23T03:02:29;98443.53;;;11.09;61.01
72428;BME280;60419;48.880;18.036;2024-03-23T03:05:14;98433.75;;;10.70;62.13
72428;BME280;60419;48.880;18.036;2024-03-23T03:08:00;98427.59;;;10.34;62.81
72428;BME280;60419;48.880;18.036;2024-03-23T03:10:45;98438.31;;;9.56;66.20
72428;BME280;60419;48.880;18.036;2024-03-23T03:13:30;98435.50;;;9.79;65.48
72428;BME280;60419;48.880;18.036;2024-03-23T03:16:16;98437.13;;;10.06;64.44
72428;BME280;60419;48.880;18.036;2024-03-23T03:19:01;98408.03;;;9.77;65.00
72428;BME280;60419;48.880;18.036;2024-03-23T03:21:47;98428.41;;;10.00;64.54
72428;BME280;60419;48.880;18.036;2024-03-23T03:24:33;98415.22;;;10.16;63.77
72428;BME280;60419;48.880;18.036;2024-03-23T03:27:18;98421.88;;;10.36;63.16
72428;BME280;60419;48.880;18.036;2024-03-23T03:30:04;98419.81;;;10.24;63.21
72428;BME280;60419;48.880;18.036;2024-03-23T03:32:53;98418.88;;;10.20;63.38
72428;BME280;60419;48.880;18.036;2024-03-23T03:35:38;98409.00;;;10.33;62.96
72428;BME280;60419;48.880;18.036;2024-03-23T03:38:24;98409.81;;;10.33;63.29
72428;BME280;60419;48.880;18.036;2024-03-23T03:41:09;98408.34;;;10.62;62.56
72428;BME280;60419;48.880;18.036;2024-03-23T03:43:55;98404.38;;;10.59;62.49
72428;BME280;60419;48.880;18.036;2024-03-23T03:46:40;98398.19;;;10.59;62.33
72428;BME280;60419;48.880;18.036;2024-03-23T03:49:26;98399.94;;;10.55;62.29
72428;BME280;60419;48.880;18.036;2024-03-23T03:52:11;98399.94;;;10.64;62.42
72428;BME280;60419;48.880;18.036;2024-03-23T03:55:01;98391.03;;;10.54;62.50
72428;BME280;60419;48.880;18.036;2024-03-23T03:57:47;98396.25;;;10.68;62.40
72428;BME280;60419;48.880;18.036;2024-03-23T04:00:32;98393.06;;;10.75;62.36
72428;BME280;60419;48.880;18.036;2024-03-23T04:03:18;98394.97;;;10.74;61.94
72428;BME280;60419;48.880;18.036;2024-03-23T04:06:03;98394.34;;;10.69;62.61
72428;BME280;60419;48.880;18.036;2024-03-23T04:08:49;98364.91;;;10.11;63.24
72428;BME280;60419;48.880;18.036;2024-03-23T04:11:34;98398.69;;;10.44;62.91
72428;BME280;60419;48.880;18.036;2024-03-23T04:14:20;98387.88;;;10.52;62.76
72428;BME280;60419;48.880;18.036;2024-03-23T04:17:06;98381.56;;;10.22;63.98
72428;BME280;60419;48.880;18.036;2024-03-23T04:19:51;98379.66;;;10.23;64.13
72428;BME280;60419;48.880;18.036;2024-03-23T04:22:37;98284.63;;;9.56;64.57
72428;BME280;60419;48.880;18.036;2024-03-23T04:25:23;98392.97;;;9.67;65.49
72428;BME280;60419;48.880;18.036;2024-03-23T04:28:08;98392.28;;;9.52;66.50
72428;BME280;60419;48.880;18.036;2024-03-23T04:30:54;98391.25;;;9.88;66.10
72428;BME280;60419;48.880;18.036;2024-03-23T04:33:39;98372.03;;;10.16;65.24
72428;BME280;60419;48.880;18.036;2024-03-23T04:36:24;98347.13;;;10.19;64.49
72428;BME280;60419;48.880;18.036;2024-03-23T04:39:10;98353.75;;;10.30;63.93
72428;BME280;60419;48.880;18.036;2024-03-23T04:41:55;98329.97;;;10.15;64.18
72428;BME280;60419;48.880;18.036;2024-03-23T04:44:40;98358.81;;;8.34;69.79
72428;BME280;60419;48.880;18.036;2024-03-23T04:47:26;98346.38;;;7.79;71.92
72428;BME280;60419;48.880;18.036;2024-03-23T04:50:12;98353.06;;;8.49;70.21
72428;BME280;60419;48.880;18.036;2024-03-23T04:52:57;98361.41;;;9.19;68.57
72428;BME280;60419;48.880;18.036;2024-03-23T04:55:43;98352.69;;;9.22;66.99
72428;BME280;60419;48.880;18.036;2024-03-23T04:58:28;98377.44;;;8.53;69.61
72428;BME280;60419;48.880;18.036;2024-03-23T05:01:14;98373.56;;;8.99;69.40
72428;BME280;60419;48.880;18.036;2024-03-23T05:04:00;98345.09;;;9.24;68.27
72428;BME280;60419;48.880;18.036;2024-03-23T05:06:45;98359.00;;;9.48;67.13
72428;BME280;60419;48.880;18.036;2024-03-23T05:09:30;98354.44;;;9.92;66.21
72428;BME280;60419;48.880;18.036;2024-03-23T05:12:18;98341.88;;;9.97;65.87
72428;BME280;60419;48.880;18.036;2024-03-23T05:15:05;98326.22;;;9.15;68.60
72428;BME280;60419;48.880;18.036;2024-03-23T05:17:50;98320.94;;;9.67;66.82
72428;BME280;60419;48.880;18.036;2024-03-23T05:20:36;98323.16;;;9.91;65.84
72428;BME280;60419;48.880;18.036;2024-03-23T05:23:21;98327.31;;;9.71;66.48
72428;BME280;60419;48.880;18.036;2024-03-23T05:26:06;98301.72;;;9.34;67.47
72428;BME280;60419;48.880;18.036;2024-03-23T05:28:52;98309.50;;;9.44;67.78
72428;BME280;60419;48.880;18.036;2024-03-23T05:31:37;98330.44;;;9.39;67.26
72428;BME280;60419;48.880;18.036;2024-03-23T05:34:23;98327.41;;;8.52;71.17
72428;BME280;60419;48.880;18.036;2024-03-23T05:37:08;98326.13;;;8.80;70.55
72428;BME280;60419;48.880;18.036;2024-03-23T05:39:53;98321.13;;;9.05;69.78
72428;BME280;60419;48.880;18.036;2024-03-23T05:42:39;98282.63;;;9.04;67.94
72428;BME280;60419;48.880;18.036;2024-03-23T05:45:24;98322.97;;;9.53;67.81
72428;BME280;60419;48.880;18.036;2024-03-23T05:48:09;98309.38;;;9.93;66.32
72428;BME280;60419;48.880;18.036;2024-03-23T05:50:55;98324.13;;;9.78;66.15
72428;BME280;60419;48.880;18.036;2024-03-23T05:53:40;98320.47;;;9.83;66.55
72428;BME280;60419;48.880;18.036;2024-03-23T05:56:26;98305.72;;;9.80;66.44
72428;BME280;60419;48.880;18.036;2024-03-23T05:59:11;98307.16;;;9.95;66.50
72428;BME280;60419;48.880;18.036;2024-03-23T06:01:56;98297.44;;;8.45;71.26
72428;BME280;60419;48.880;18.036;2024-03-23T06:04:42;98294.25;;;7.89;73.81
72428;BME280;60419;48.880;18.036;2024-03-23T06:07:27;98289.59;;;7.81;74.09
72428;BME280;60419;48.880;18.036;2024-03-23T06:10:13;98290.66;;;8.16;72.93
72428;BME280;60419;48.880;18.036;2024-03-23T06:12:58;98310.91;;;8.84;70.89
72428;BME280;60419;48.880;18.036;2024-03-23T06:15:44;98329.31;;;9.40;68.22
72428;BME280;60419;48.880;18.036;2024-03-23T06:18:31;98337.13;;;9.76;67.47
72428;BME280;60419;48.880;18.036;2024-03-23T06:21:17;98324.09;;;9.87;66.62
72428;BME280;60419;48.880;18.036;2024-03-23T06:24:02;98319.50;;;10.05;65.33
72428;BME280;60419;48.880;18.036;2024-03-23T06:26:48;98255.13;;;9.51;65.81
72428;BME280;60419;48.880;18.036;2024-03-23T06:29:33;98309.03;;;9.86;66.00
72428;BME280;60419;48.880;18.036;2024-03-23T06:32:18;98291.13;;;9.46;67.21
72428;BME280;60419;48.880;18.036;2024-03-23T06:35:04;98298.38;;;10.15;65.10
72428;BME280;60419;48.880;18.036;2024-03-23T06:37:53;98285.34;;;11.33;73.31
72428;BME280;60419;48.880;18.036;2024-03-23T06:40:38;98299.88;;;11.28;69.68
72428;BME280;60419;48.880;18.036;2024-03-23T06:43:24;98287.00;;;10.95;62.94
72428;BME280;60419;48.880;18.036;2024-03-23T06:46:09;98299.72;;;10.48;65.55
72428;BME280;60419;48.880;18.036;2024-03-23T06:48:55;98302.41;;;10.56;66.34
72428;BME280;60419;48.880;18.036;2024-03-23T06:51:40;98288.56;;;10.02;69.25
72428;BME280;60419;48.880;18.036;2024-03-23T06:54:26;98303.16;;;10.01;69.99
72428;BME280;60419;48.880;18.036;2024-03-23T06:57:12;98298.25;;;9.68;70.50
72428;BME280;60419;48.880;18.036;2024-03-23T06:59:57;98271.13;;;10.55;80.29
72428;BME280;60419;48.880;18.036;2024-03-23T07:02:43;98284.63;;;10.94;67.18
72428;BME280;60419;48.880;18.036;2024-03-23T07:05:29;98265.81;;;11.06;64.63
72428;BME280;60419;48.880;18.036;2024-03-23T07:08:14;98259.16;;;11.03;63.38
72428;BME280;60419;48.880;18.036;2024-03-23T07:11:06;98257.88;;;11.52;62.32
72428;BME280;60419;48.880;18.036;2024-03-23T07:13:53;98257.53;;;11.32;61.77
72428;BME280;60419;48.880;18.036;2024-03-23T07:16:41;98265.50;;;11.08;61.86
72428;BME280;60419;48.880;18.036;2024-03-23T07:19:26;98257.59;;;11.23;61.57
72428;BME280;60419;48.880;18.036;2024-03-23T07:22:12;98264.81;;;11.11;62.46
72428;BME280;60419;48.880;18.036;2024-03-23T07:25:00;98264.16;;;10.84;62.80
72428;BME280;60419;48.880;18.036;2024-03-23T07:27:46;98278.06;;;11.03;63.45
72428;BME280;60419;48.880;18.036;2024-03-23T07:30:31;98271.69;;;10.70;63.47
72428;BME280;60419;48.880;18.036;2024-03-23T07:33:16;98267.69;;;10.37;64.85
72428;BME280;60419;48.880;18.036;2024-03-23T07:36:02;98271.69;;;10.23;66.10
72428;BME280;60419;48.880;18.036;2024-03-23T07:38:48;98273.47;;;10.19;66.37
72428;BME280;60419;48.880;18.036;2024-03-23T07:41:33;98260.06;;;10.39;65.14
72428;BME280;60419;48.880;18.036;2024-03-23T07:44:20;98270.16;;;10.51;65.82
72428;BME280;60419;48.880;18.036;2024-03-23T07:47:06;98267.25;;;11.03;79.53
72428;BME280;60419;48.880;18.036;2024-03-23T07:49:51;98266.59;;;11.07;64.67
72428;BME280;60419;48.880;18.036;2024-03-23T07:52:36;98254.69;;;11.08;63.77
72428;BME280;60419;48.880;18.036;2024-03-23T07:55:23;98261.84;;;11.03;61.62
72428;BME280;60419;48.880;18.036;2024-03-23T07:58:08;98234.88;;;10.95;61.29
72428;BME280;60419;48.880;18.036;2024-03-23T08:00:54;98236.16;;;10.89;61.65
72428;BME280;60419;48.880;18.036;2024-03-23T08:03:41;98244.09;;;10.94;61.38
72428;BME280;60419;48.880;18.036;2024-03-23T08:06:27;98254.31;;;10.79;62.66
72428;BME280;60419;48.880;18.036;2024-03-23T08:09:12;98247.91;;;10.93;62.51
72428;BME280;60419;48.880;18.036;2024-03-23T08:11:57;98244.84;;;10.65;63.34
72428;BME280;60419;48.880;18.036;2024-03-23T08:14:43;98233.97;;;10.52;64.41
72428;BME280;60419;48.880;18.036;2024-03-23T08:17:28;98245.75;;;10.77;63.86
72428;BME280;60419;48.880;18.036;2024-03-23T08:20:14;98234.72;;;10.61;63.85
72428;BME280;60419;48.880;18.036;2024-03-23T08:22:59;98240.63;;;11.14;62.90
72428;BME280;60419;48.880;18.036;2024-03-23T08:25:44;98224.16;;;11.07;63.10
72428;BME280;60419;48.880;18.036;2024-03-23T08:28:30;98229.22;;;11.51;62.43
72428;BME280;60419;48.880;18.036;2024-03-23T08:31:15;98217.75;;;11.87;61.09
72428;BME280;60419;48.880;18.036;2024-03-23T08:34:01;98227.19;;;11.26;63.18
72428;BME280;60419;48.880;18.036;2024-03-23T08:36:46;98221.69;;;11.56;61.49
72428;BME280;60419;48.880;18.036;2024-03-23T08:39:31;98217.84;;;11.78;61.09
72428;BME280;60419;48.880;18.036;2024-03-23T08:42:17;98219.34;;;11.34;62.52
72428;BME280;60419;48.880;18.036;2024-03-23T08:45:02;98209.84;;;11.27;61.61
72428;BME280;60419;48.880;18.036;2024-03-23T08:47:48;98201.69;;;10.94;63.45
72428;BME280;60419;48.880;18.036;2024-03-23T08:50:33;98200.88;;;11.15;63.11
72428;BME280;60419;48.880;18.036;2024-03-23T08:53:19;98201.94;;;10.72;63.22
72428;BME280;60419;48.880;18.036;2024-03-23T08:56:05;98192.66;;;10.81;63.48
72428;BME280;60419;48.880;18.036;2024-03-23T08:58:51;98189.22;;;13.65;80.23
72428;BME280;60419;48.880;18.036;2024-03-23T09:01:36;98170.47;;;14.67;55.63
72428;BME280;60419;48.880;18.036;2024-03-23T09:04:23;98169.69;;;12.78;57.01
72428;BME280;60419;48.880;18.036;2024-03-23T09:07:08;98174.81;;;11.85;60.12
72428;BME280;60419;48.880;18.036;2024-03-23T09:09:54;98164.88;;;11.44;61.66
72428;BME280;60419;48.880;18.036;2024-03-23T09:12:39;98159.63;;;11.06;62.92
72428;BME280;60419;48.880;18.036;2024-03-23T09:15:24;98147.88;;;11.01;62.51
72428;BME280;60419;48.880;18.036;2024-03-23T09:18:10;98147.28;;;10.96;63.36
72428;BME280;60419;48.880;18.036;2024-03-23T09:20:55;98150.25;;;11.24;62.39
72428;BME280;60419;48.880;18.036;2024-03-23T09:23:45;98138.50;;;11.41;62.05
72428;BME280;60419;48.880;18.036;2024-03-23T09:26:31;98142.09;;;10.91;63.72
72428;BME280;60419;48.880;18.036;2024-03-23T09:29:16;98131.91;;;11.30;62.60
72428;BME280;60419;48.880;18.036;2024-03-23T09:32:01;98124.06;;;11.95;71.52
72428;BME280;60419;48.880;18.036;2024-03-23T09:34:47;98127.66;;;14.13;71.81
72428;BME280;60419;48.880;18.036;2024-03-23T09:37:32;98122.00;;;14.38;68.87
72428;BME280;60419;48.880;18.036;2024-03-23T09:40:17;98115.72;;;15.43;53.91
72428;BME280;60419;48.880;18.036;2024-03-23T09:43:06;98113.19;;;13.93;54.68
72428;BME280;60419;48.880;18.036;2024-03-23T09:45:52;98111.25;;;13.06;56.47
72428;BME280;60419;48.880;18.036;2024-03-23T09:48:38;98104.66;;;13.19;57.73
72428;BME280;60419;48.880;18.036;2024-03-23T09:51:23;98084.13;;;13.34;56.32
72428;BME280;60419;48.880;18.036;2024-03-23T09:54:08;98074.91;;;12.94;57.91
72428;BME280;60419;48.880;18.036;2024-03-23T09:56:54;98074.81;;;12.91;58.42
72428;BME280;60419;48.880;18.036;2024-03-23T09:59:39;98071.59;;;13.29;56.94
72428;BME280;60419;48.880;18.036;2024-03-23T10:02:25;98057.03;;;13.06;57.60
72428;BME280;60419;48.880;18.036;2024-03-23T10:05:21;98058.31;;;13.40;56.27
72428;BME280;60419;48.880;18.036;2024-03-23T10:11:13;98014.66;;;12.85;58.59
72428;BME280;60419;48.880;18.036;2024-03-23T10:13:58;98022.63;;;12.94;57.92
72428;BME280;60419;48.880;18.036;2024-03-23T10:16:44;98029.44;;;13.32;57.05
72428;BME280;60419;48.880;18.036;2024-03-23T10:19:32;98009.28;;;13.17;57.42
72428;BME280;60419;48.880;18.036;2024-03-23T10:22:22;98008.88;;;13.47;57.31
72428;BME280;60419;48.880;18.036;2024-03-23T10:25:09;97989.38;;;13.73;56.86
72428;BME280;60419;48.880;18.036;2024-03-23T10:27:59;98002.00;;;13.81;55.54
72428;BME280;60419;48.880;18.036;2024-03-23T10:30:45;98005.16;;;13.67;56.50
72428;BME280;60419;48.880;18.036;2024-03-23T10:33:31;98001.16;;;13.17;57.12
72428;BME280;60419;48.880;18.036;2024-03-23T10:36:17;97995.09;;;13.68;56.80
72428;BME280;60419;48.880;18.036;2024-03-23T10:39:03;97987.81;;;13.72;57.07
72428;BME280;60419;48.880;18.036;2024-03-23T10:41:50;97991.66;;;13.86;55.56
72428;BME280;60419;48.880;18.036;2024-03-23T10:44:36;97985.56;;;13.58;57.36
72428;BME280;60419;48.880;18.036;2024-03-23T10:47:22;97987.13;;;13.75;56.75
72428;BME280;60419;48.880;18.036;2024-03-23T10:50:07;97969.78;;;13.32;57.78
72428;BME280;60419;48.880;18.036;2024-03-23T10:52:53;97951.59;;;13.32;57.73
72428;BME280;60419;48.880;18.036;2024-03-23T10:55:40;97967.25;;;13.71;57.98
72428;BME280;60419;48.880;18.036;2024-03-23T10:58:31;97936.00;;;13.77;56.92
72428;BME280;60419;48.880;18.036;2024-03-23T11:01:17;97956.91;;;13.92;56.22
72428;BME280;60419;48.880;18.036;2024-03-23T11:04:03;97947.88;;;14.43;56.49
72428;BME280;60419;48.880;18.036;2024-03-23T11:06:48;97926.56;;;14.64;54.48
72428;BME280;60419;48.880;18.036;2024-03-23T11:15:11;97907.97;;;14.86;54.13
72428;BME280;60419;48.880;18.036;2024-03-23T11:18:07;97913.09;;;14.91;53.16
72428;BME280;60419;48.880;18.036;2024-03-23T11:20:57;97895.09;;;15.06;53.67
72428;BME280;60419;48.880;18.036;2024-03-23T11:23:42;97882.81;;;15.65;53.20
72428;BME280;60419;48.880;18.036;2024-03-23T11:26:27;97877.47;;;16.29;51.06
72428;BME280;60419;48.880;18.036;2024-03-23T11:29:15;97863.38;;;16.61;50.13
72428;BME280;60419;48.880;18.036;2024-03-23T11:32:01;97841.91;;;16.52;49.47
72428;BME280;60419;48.880;18.036;2024-03-23T11:34:48;97817.75;;;16.91;47.29
72428;BME280;60419;48.880;18.036;2024-03-23T11:37:33;97813.91;;;17.00;46.27
72428;BME280;60419;48.880;18.036;2024-03-23T11:40:19;97796.72;;;16.92;47.46
72428;BME280;60419;48.880;18.036;2024-03-23T11:43:09;97820.28;;;17.14;46.74
72428;BME280;60419;48.880;18.036;2024-03-23T11:45:56;97810.91;;;17.12;47.34
72428;BME280;60419;48.880;18.036;2024-03-23T11:48:49;97804.34;;;17.27;47.15
72428;BME280;60419;48.880;18.036;2024-03-23T11:51:35;97819.44;;;17.10;46.62
72428;BME280;60419;48.880;18.036;2024-03-23T11:54:22;97798.22;;;17.41;46.79
72428;BME280;60419;48.880;18.036;2024-03-23T11:57:08;97807.13;;;17.31;46.17
72428;BME280;60419;48.880;18.036;2024-03-23T11:59:54;97787.25;;;17.30;46.70
72428;BME280;60419;48.880;18.036;2024-03-23T12:02:39;97785.16;;;17.79;45.95
72428;BME280;60419;48.880;18.036;2024-03-23T12:05:26;97789.63;;;17.39;46.93
72428;BME280;60419;48.880;18.036;2024-03-23T12:08:19;97793.88;;;17.33;46.43
72428;BME280;60419;48.880;18.036;2024-03-23T12:13:50;97783.72;;;16.78;46.89
72428;BME280;60419;48.880;18.036;2024-03-23T12:16:37;97780.94;;;16.30;48.63
72428;BME280;60419;48.880;18.036;2024-03-23T12:19:22;97778.56;;;16.69;47.60
72428;BME280;60419;48.880;18.036;2024-03-23T12:22:10;97774.34;;;16.35;47.58
72428;BME280;60419;48.880;18.036;2024-03-23T12:24:56;97767.50;;;16.52;47.01
72428;BME280;60419;48.880;18.036;2024-03-23T12:27:41;97767.88;;;16.91;47.01
72428;BME280;60419;48.880;18.036;2024-03-23T12:30:28;97764.16;;;16.72;45.66
72428;BME280;60419;48.880;18.036;2024-03-23T12:33:13;97731.81;;;16.67;44.95
72428;BME280;60419;48.880;18.036;2024-03-23T12:35:58;97744.41;;;16.83;45.15
72428;BME280;60419;48.880;18.036;2024-03-23T12:38:44;97751.31;;;17.21;44.63
72428;BME280;60419;48.880;18.036;2024-03-23T12:41:29;97745.25;;;16.46;44.99
72428;BME280;60419;48.880;18.036;2024-03-23T12:44:15;97744.28;;;16.65;45.50
72428;BME280;60419;48.880;18.036;2024-03-23T12:47:01;97726.81;;;16.73;45.45
72428;BME280;60419;48.880;18.036;2024-03-23T12:49:46;97738.81;;;17.17;45.31
72428;BME280;60419;48.880;18.036;2024-03-23T12:52:35;97717.38;;;17.19;45.43
72428;BME280;60419;48.880;18.036;2024-03-23T12:55:20;97718.84;;;17.75;44.97
72428;BME280;60419;48.880;18.036;2024-03-23T12:58:06;97727.69;;;17.50;45.23
72428;BME280;60419;48.880;18.036;2024-03-23T13:00:52;97734.47;;;17.82;44.46
72428;BME280;60419;48.880;18.036;2024-03-23T13:03:38;97718.19;;;18.39;43.34
72428;BME280;60419;48.880;18.036;2024-03-23T13:06:23;97708.59;;;17.54;43.45
72428;BME280;60419;48.880;18.036;2024-03-23T13:09:08;97703.88;;;17.51;43.54
72428;BME280;60419;48.880;18.036;2024-03-23T13:11:54;97718.19;;;17.26;43.57
72428;BME280;60419;48.880;18.036;2024-03-23T13:14:39;97693.78;;;17.55;43.99
72428;BME280;60419;48.880;18.036;2024-03-23T13:17:26;97696.50;;;17.51;43.68
72428;BME280;60419;48.880;18.036;2024-03-23T13:20:12;97698.50;;;17.65;43.21
72428;BME280;60419;48.880;18.036;2024-03-23T13:22:59;97677.88;;;17.75;43.18
72428;BME280;60419;48.880;18.036;2024-03-23T13:25:51;97675.56;;;17.80;42.60
72428;BME280;60419;48.880;18.036;2024-03-23T13:28:37;97687.94;;;17.56;42.67
72428;BME280;60419;48.880;18.036;2024-03-23T13:31:23;97666.97;;;17.82;42.05
72428;BME280;60419;48.880;18.036;2024-03-23T13:34:08;97677.94;;;18.00;42.90
72428;BME280;60419;48.880;18.036;2024-03-23T13:36:54;97660.78;;;18.07;43.07
72428;BME280;60419;48.880;18.036;2024-03-23T13:39:39;97668.06;;;17.63;43.95
72428;BME280;60419;48.880;18.036;2024-03-23T13:42:27;97673.50;;;17.63;44.32
72428;BME280;60419;48.880;18.036;2024-03-23T13:45:12;97684.44;;;17.59;44.07
72428;BME280;60419;48.880;18.036;2024-03-23T13:47:57;97716.19;;;17.12;45.76
72428;BME280;60419;48.880;18.036;2024-03-23T13:50:43;97740.09;;;16.34;48.17
72428;BME280;60419;48.880;18.036;2024-03-23T13:53:29;97772.66;;;16.23;49.51
72428;BME280;60419;48.880;18.036;2024-03-23T13:56:14;97798.25;;;15.51;51.62
72428;BME280;60419;48.880;18.036;2024-03-23T13:58:59;97847.34;;;15.08;52.90
72428;BME280;60419;48.880;18.036;2024-03-23T14:01:45;97885.59;;;13.76;56.48
72428;BME280;60419;48.880;18.036;2024-03-23T14:04:33;97880.81;;;13.06;59.82
72428;BME280;60419;48.880;18.036;2024-03-23T14:07:18;97889.78;;;12.62;63.79
72428;BME280;60419;48.880;18.036;2024-03-23T14:10:05;97889.94;;;12.53;65.32
72428;BME280;60419;48.880;18.036;2024-03-23T14:12:56;97893.59;;;12.45;66.57
72428;BME280;60419;48.880;18.036;2024-03-23T14:15:41;97898.44;;;12.40;66.25
72428;BME280;60419;48.880;18.036;2024-03-23T14:18:27;97898.06;;;12.13;67.97
72428;BME280;60419;48.880;18.036;2024-03-23T14:21:13;97901.72;;;11.92;68.96
72428;BME280;60419;48.880;18.036;2024-03-23T14:23:58;97894.19;;;11.86;69.90
72428;BME280;60419;48.880;18.036;2024-03-23T14:26:46;97896.53;;;12.00;69.38
72428;BME280;60419;48.880;18.036;2024-03-23T14:29:31;97913.22;;;11.89;70.26
72428;BME280;60419;48.880;18.036;2024-03-23T14:32:16;97892.13;;;11.95;69.70
72428;BME280;60419;48.880;18.036;2024-03-23T14:35:05;97935.66;;;12.02;69.59
72428;BME280;60419;48.880;18.036;2024-03-23T14:37:52;97966.00;;;11.96;70.63
72428;BME280;60419;48.880;18.036;2024-03-23T14:40:38;97971.09;;;11.60;71.48
72428;BME280;60419;48.880;18.036;2024-03-23T14:43:23;97978.81;;;12.11;69.68
72428;BME280;60419;48.880;18.036;2024-03-23T14:46:13;97995.41;;;12.22;68.98
72428;BME280;60419;48.880;18.036;2024-03-23T14:48:59;98023.03;;;12.03;68.57
72428;BME280;60419;48.880;18.036;2024-03-23T14:51:45;98011.00;;;11.76;67.75
72428;BME280;60419;48.880;18.036;2024-03-23T14:54:31;98030.50;;;11.94;68.50
72428;BME280;60419;48.880;18.036;2024-03-23T14:57:17;98021.78;;;11.63;70.44
72428;BME280;60419;48.880;18.036;2024-03-23T15:00:06;98045.53;;;11.45;72.35
72428;BME280;60419;48.880;18.036;2024-03-23T15:02:52;98048.94;;;11.09;73.75
72428;BME280;60419;48.880;18.036;2024-03-23T15:05:38;98029.19;;;10.75;73.59
72428;BME280;60419;48.880;18.036;2024-03-23T15:08:23;98059.72;;;10.76;73.50
72428;BME280;60419;48.880;18.036;2024-03-23T15:11:09;98055.47;;;10.45;73.07
72428;BME280;60419;48.880;18.036;2024-03-23T15:13:54;98064.50;;;10.70;72.84
72428;BME280;60419;48.880;18.036;2024-03-23T15:16:40;98051.53;;;10.43;70.84
72428;BME280;60419;48.880;18.036;2024-03-23T15:19:27;98058.00;;;10.50;73.97
72428;BME280;60419;48.880;18.036;2024-03-23T15:22:12;98046.97;;;10.34;68.87
72428;BME280;60419;48.880;18.036;2024-03-23T15:24:58;98056.06;;;10.51;69.32
72428;BME280;60419;48.880;18.036;2024-03-23T15:27:43;98065.44;;;10.74;71.20
72428;BME280;60419;48.880;18.036;2024-03-23T15:30:28;98056.53;;;10.74;71.68
72428;BME280;60419;48.880;18.036;2024-03-23T15:33:14;98049.16;;;10.62;73.89
72428;BME280;60419;48.880;18.036;2024-03-23T15:36:03;98056.53;;;10.74;75.13